sensor_id;sensor_type;location;lat;lon;timestamp;P1;durP1;ratioP1;P2;durP2;ratioP2
39404;SDS011;25121;51.090;17.038;2022-10-23T00:01:53;16.77;;;12.00;;
39404;SDS011;25121;51.090;17.038;2022-10-23T00:04:40;17.88;;;12.60;;
39404;SDS011;25121;51.090;17.038;2022-10-23T00:07:27;15.43;;;11.93;;
39404;SDS011;25121;51.090;17.038;2022-10-23T00:10:20;15.80;;;11.95;;
39404;SDS011;25121;51.090;17.038;2022-10-23T00:13:11;15.38;;;11.45;;
39404;SDS011;25121;51.090;17.038;2022-10-23T00:15:58;17.70;;;11.70;;
39404;SDS011;25121;51.090;17.038;2022-10-23T00:18:46;16.88;;;11.52;;
39404;SDS011;25121;51.090;17.038;2022-10-23T00:21:33;15.68;;;11.77;;
39404;SDS011;25121;51.090;17.038;2022-10-23T00:24:20;15.63;;;11.73;;
39404;SDS011;25121;51.090;17.038;2022-10-23T00:27:08;15.30;;;11.73;;
39404;SDS011;25121;51.090;17.038;2022-10-23T00:29:56;17.23;;;11.40;;
39404;SDS011;25121;51.090;17.038;2022-10-23T00:32:44;14.27;;;11.30;;
39404;SDS011;25121;51.090;17.038;2022-10-23T00:35:32;16.48;;;11.80;;
39404;SDS011;25121;51.090;17.038;2022-10-23T00:38:19;15.95;;;11.25;;
39404;SDS011;25121;51.090;17.038;2022-10-23T00:41:07;15.30;;;10.90;;
39404;SDS011;25121;51.090;17.038;2022-10-23T00:44:02;16.23;;;11.25;;
39404;SDS011;25121;51.090;17.038;2022-10-23T00:46:55;15.45;;;11.40;;
39404;SDS011;25121;51.090;17.038;2022-10-23T00:49:43;16.25;;;10.85;;
39404;SDS011;25121;51.090;17.038;2022-10-23T00:52:31;12.77;;;10.10;;
39404;SDS011;25121;51.090;17.038;2022-10-23T00:55:20;13.27;;;9.80;;
39404;SDS011;25121;51.090;17.038;2022-10-23T00:58:11;16.25;;;10.60;;
39404;SDS011;25121;51.090;17.038;2022-10-23T01:00:58;13.38;;;10.30;;
39404;SDS011;25121;51.090;17.038;2022-10-23T01:03:47;16.60;;;10.23;;
39404;SDS011;25121;51.090;17.038;2022-10-23T01:06:37;13.25;;;9.57;;
39404;SDS011;25121;51.090;17.038;2022-10-23T01:09:35;12.48;;;9.82;;
39404;SDS011;25121;51.090;17.038;2022-10-23T01:12:30;15.13;;;10.75;;
39404;SDS011;25121;51.090;17.038;2022-10-23T01:15:33;14.95;;;10.25;;
39404;SDS011;25121;51.090;17.038;2022-10-23T01:18:30;18.77;;;10.07;;
39404;SDS011;25121;51.090;17.038;2022-10-23T01:21:30;14.63;;;10.75;;
39404;SDS011;25121;51.090;17.038;2022-10-23T01:24:34;15.65;;;11.18;;
39404;SDS011;25121;51.090;17.038;2022-10-23T01:27:33;13.60;;;10.55;;
39404;SDS011;25121;51.090;17.038;2022-10-23T01:30:26;14.55;;;11.10;;
39404;SDS011;25121;51.090;17.038;2022-10-23T01:33:16;16.45;;;10.43;;
39404;SDS011;25121;51.090;17.038;2022-10-23T01:36:10;15.40;;;10.95;;
39404;SDS011;25121;51.090;17.038;2022-10-23T01:39:02;14.52;;;10.45;;
39404;SDS011;25121;51.090;17.038;2022-10-23T01:41:56;14.80;;;10.32;;
39404;SDS011;25121;51.090;17.038;2022-10-23T01:44:52;15.15;;;9.98;;
39404;SDS011;25121;51.090;17.038;2022-10-23T01:47:54;13.93;;;10.25;;
39404;SDS011;25121;51.090;17.038;2022-10-23T01:50:43;14.20;;;10.20;;
39404;SDS011;25121;51.090;17.038;2022-10-23T01:53:33;13.70;;;10.52;;
39404;SDS011;25121;51.090;17.038;2022-10-23T01:56:28;14.63;;;10.13;;
39404;SDS011;25121;51.090;17.038;2022-10-23T01:59:20;16.10;;;10.27;;
39404;SDS011;25121;51.090;17.038;2022-10-23T02:02:12;15.45;;;11.65;;
39404;SDS011;25121;51.090;17.038;2022-10-23T02:05:03;13.85;;;11.13;;
39404;SDS011;25121;51.090;17.038;2022-10-23T02:07:56;13.35;;;10.20;;
39404;SDS011;25121;51.090;17.038;2022-10-23T02:10:46;14.27;;;10.32;;
39404;SDS011;25121;51.090;17.038;2022-10-23T02:13:42;16.83;;;11.45;;
39404;SDS011;25121;51.090;17.038;2022-10-23T02:16:38;14.75;;;10.30;;
39404;SDS011;25121;51.090;17.038;2022-10-23T02:19:32;14.93;;;10.70;;
39404;SDS011;25121;51.090;17.038;2022-10-23T02:22:28;18.45;;;10.60;;
39404;SDS011;25121;51.090;17.038;2022-10-23T02:25:24;14.23;;;9.93;;
39404;SDS011;25121;51.090;17.038;2022-10-23T02:28:22;14.18;;;9.90;;
39404;SDS011;25121;51.090;17.038;2022-10-23T02:31:19;15.50;;;10.10;;
39404;SDS011;25121;51.090;17.038;2022-10-23T02:34:11;15.07;;;10.38;;
39404;SDS011;25121;51.090;17.038;2022-10-23T02:36:59;13.32;;;10.02;;
39404;SDS011;25121;51.090;17.038;2022-10-23T02:39:47;14.40;;;10.23;;
39404;SDS011;25121;51.090;17.038;2022-10-23T02:42:35;15.50;;;10.75;;
39404;SDS011;25121;51.090;17.038;2022-10-23T02:45:30;15.20;;;10.70;;
39404;SDS011;25121;51.090;17.038;2022-10-23T02:48:24;13.90;;;10.50;;
39404;SDS011;25121;51.090;17.038;2022-10-23T02:51:25;15.82;;;11.38;;
39404;SDS011;25121;51.090;17.038;2022-10-23T02:54:29;12.68;;;9.75;;
39404;SDS011;25121;51.090;17.038;2022-10-23T02:57:32;13.77;;;9.88;;
39404;SDS011;25121;51.090;17.038;2022-10-23T03:00:28;15.77;;;10.13;;
39404;SDS011;25121;51.090;17.038;2022-10-23T03:03:19;14.48;;;10.40;;
39404;SDS011;25121;51.090;17.038;2022-10-23T03:06:12;14.30;;;10.30;;
39404;SDS011;25121;51.090;17.038;2022-10-23T03:09:02;14.00;;;9.63;;
39404;SDS011;25121;51.090;17.038;2022-10-23T03:11:53;13.43;;;9.50;;
39404;SDS011;25121;51.090;17.038;2022-10-23T03:14:41;16.80;;;11.43;;
39404;SDS011;25121;51.090;17.038;2022-10-23T03:17:28;13.05;;;10.00;;
39404;SDS011;25121;51.090;17.038;2022-10-23T03:20:17;14.73;;;10.10;;
39404;SDS011;25121;51.090;17.038;2022-10-23T03:23:05;13.45;;;9.57;;
39404;SDS011;25121;51.090;17.038;2022-10-23T03:25:52;15.32;;;9.68;;
39404;SDS011;25121;51.090;17.038;2022-10-23T03:28:56;13.82;;;11.48;;
39404;SDS011;25121;51.090;17.038;2022-10-23T03:31:44;15.52;;;10.05;;
39404;SDS011;25121;51.090;17.038;2022-10-23T03:34:32;12.65;;;9.77;;
39404;SDS011;25121;51.090;17.038;2022-10-23T03:37:21;13.82;;;9.82;;
39404;SDS011;25121;51.090;17.038;2022-10-23T03:40:09;13.82;;;9.98;;
39404;SDS011;25121;51.090;17.038;2022-10-23T03:42:57;12.98;;;9.73;;
39404;SDS011;25121;51.090;17.038;2022-10-23T03:45:48;13.18;;;10.05;;
39404;SDS011;25121;51.090;17.038;2022-10-23T03:48:36;15.18;;;10.18;;
39404;SDS011;25121;51.090;17.038;2022-10-23T03:51:25;11.98;;;9.23;;
39404;SDS011;25121;51.090;17.038;2022-10-23T03:54:14;13.27;;;9.35;;
39404;SDS011;25121;51.090;17.038;2022-10-23T03:57:02;13.60;;;10.27;;
39404;SDS011;25121;51.090;17.038;2022-10-23T03:59:49;16.30;;;10.57;;
39404;SDS011;25121;51.090;17.038;2022-10-23T04:02:38;14.63;;;10.23;;
39404;SDS011;25121;51.090;17.038;2022-10-23T04:05:27;13.73;;;9.68;;
39404;SDS011;25121;51.090;17.038;2022-10-23T04:08:16;12.15;;;9.32;;
39404;SDS011;25121;51.090;17.038;2022-10-23T04:11:06;11.88;;;9.48;;
39404;SDS011;25121;51.090;17.038;2022-10-23T04:14:02;13.90;;;9.52;;
39404;SDS011;25121;51.090;17.038;2022-10-23T04:16:50;14.05;;;10.15;;
39404;SDS011;25121;51.090;17.038;2022-10-23T04:19:39;14.07;;;10.50;;
39404;SDS011;25121;51.090;17.038;2022-10-23T04:22:26;14.25;;;10.15;;
39404;SDS011;25121;51.090;17.038;2022-10-23T04:25:13;12.20;;;9.15;;
39404;SDS011;25121;51.090;17.038;2022-10-23T04:28:02;16.48;;;10.45;;
39404;SDS011;25121;51.090;17.038;2022-10-23T04:30:54;14.50;;;9.77;;
39404;SDS011;25121;51.090;17.038;2022-10-23T04:33:42;12.68;;;9.48;;
39404;SDS011;25121;51.090;17.038;2022-10-23T04:36:45;11.00;;;8.40;;
39404;SDS011;25121;51.090;17.038;2022-10-23T04:39:32;12.07;;;8.68;;
39404;SDS011;25121;51.090;17.038;2022-10-23T04:42:20;11.45;;;8.60;;
39404;SDS011;25121;51.090;17.038;2022-10-23T04:45:07;10.27;;;8.07;;
39404;SDS011;25121;51.090;17.038;2022-10-23T04:47:58;13.07;;;9.32;;
39404;SDS011;25121;51.090;17.038;2022-10-23T04:50:55;11.75;;;8.38;;
39404;SDS011;25121;51.090;17.038;2022-10-23T04:54:18;15.45;;;8.98;;
39404;SDS011;25121;51.090;17.038;2022-10-23T04:57:26;13.50;;;8.48;;
39404;SDS011;25121;51.090;17.038;2022-10-23T05:00:21;12.70;;;8.60;;
39404;SDS011;25121;51.090;17.038;2022-10-23T05:03:11;10.73;;;8.23;;
39404;SDS011;25121;51.090;17.038;2022-10-23T05:05:59;12.20;;;8.88;;
39404;SDS011;25121;51.090;17.038;2022-10-23T05:09:05;12.05;;;8.82;;
39404;SDS011;25121;51.090;17.038;2022-10-23T05:14:48;12.25;;;8.77;;
39404;SDS011;25121;51.090;17.038;2022-10-23T05:17:36;11.02;;;8.02;;
39404;SDS011;25121;51.090;17.038;2022-10-23T05:20:27;12.65;;;9.23;;
39404;SDS011;25121;51.090;17.038;2022-10-23T05:23:20;11.85;;;8.88;;
39404;SDS011;25121;51.090;17.038;2022-10-23T05:26:18;9.57;;;8.38;;
39404;SDS011;25121;51.090;17.038;2022-10-23T05:29:10;10.73;;;8.63;;
39404;SDS011;25121;51.090;17.038;2022-10-23T05:31:59;11.35;;;8.63;;
39404;SDS011;25121;51.090;17.038;2022-10-23T05:34:50;11.10;;;8.00;;
39404;SDS011;25121;51.090;17.038;2022-10-23T05:37:37;10.60;;;8.52;;
39404;SDS011;25121;51.090;17.038;2022-10-23T05:40:34;10.63;;;8.73;;
39404;SDS011;25121;51.090;17.038;2022-10-23T05:43:25;12.38;;;9.18;;
39404;SDS011;25121;51.090;17.038;2022-10-23T05:46:31;12.20;;;9.07;;
39404;SDS011;25121;51.090;17.038;2022-10-23T05:49:42;11.75;;;8.77;;
39404;SDS011;25121;51.090;17.038;2022-10-23T05:52:48;11.75;;;8.93;;
39404;SDS011;25121;51.090;17.038;2022-10-23T05:55:54;12.05;;;8.82;;
39404;SDS011;25121;51.090;17.038;2022-10-23T05:58:57;13.23;;;9.52;;
39404;SDS011;25121;51.090;17.038;2022-10-23T06:02:08;11.52;;;9.07;;
39404;SDS011;25121;51.090;17.038;2022-10-23T06:05:25;13.73;;;9.48;;
39404;SDS011;25121;51.090;17.038;2022-10-23T06:08:32;11.80;;;9.27;;
39404;SDS011;25121;51.090;17.038;2022-10-23T06:11:20;11.80;;;9.35;;
39404;SDS011;25121;51.090;17.038;2022-10-23T06:14:16;13.23;;;9.43;;
39404;SDS011;25121;51.090;17.038;2022-10-23T06:17:07;12.45;;;9.20;;
39404;SDS011;25121;51.090;17.038;2022-10-23T06:20:00;15.45;;;10.15;;
39404;SDS011;25121;51.090;17.038;2022-10-23T06:22:53;12.27;;;9.60;;
39404;SDS011;25121;51.090;17.038;2022-10-23T06:26:00;14.75;;;10.02;;
39404;SDS011;25121;51.090;17.038;2022-10-23T06:29:04;12.68;;;9.95;;
39404;SDS011;25121;51.090;17.038;2022-10-23T06:31:53;16.67;;;10.38;;
39404;SDS011;25121;51.090;17.038;2022-10-23T06:34:42;18.38;;;12.13;;
39404;SDS011;25121;51.090;17.038;2022-10-23T06:37:32;16.35;;;11.93;;
39404;SDS011;25121;51.090;17.038;2022-10-23T06:40:27;16.00;;;12.02;;
39404;SDS011;25121;51.090;17.038;2022-10-23T06:43:18;15.18;;;12.32;;
39404;SDS011;25121;51.090;17.038;2022-10-23T06:46:31;23.83;;;13.02;;
39404;SDS011;25121;51.090;17.038;2022-10-23T06:49:24;18.23;;;12.93;;
39404;SDS011;25121;51.090;17.038;2022-10-23T06:52:17;15.40;;;12.18;;
39404;SDS011;25121;51.090;17.038;2022-10-23T06:55:25;16.90;;;11.23;;
39404;SDS011;25121;51.090;17.038;2022-10-23T06:58:13;14.15;;;10.63;;
39404;SDS011;25121;51.090;17.038;2022-10-23T07:01:27;16.00;;;11.93;;
39404;SDS011;25121;51.090;17.038;2022-10-23T07:04:15;15.15;;;11.05;;
39404;SDS011;25121;51.090;17.038;2022-10-23T07:07:02;15.68;;;11.07;;
39404;SDS011;25121;51.090;17.038;2022-10-23T07:10:03;13.95;;;10.82;;
39404;SDS011;25121;51.090;17.038;2022-10-23T07:12:58;16.30;;;10.40;;
39404;SDS011;25121;51.090;17.038;2022-10-23T07:15:54;14.07;;;10.52;;
39404;SDS011;25121;51.090;17.038;2022-10-23T07:18:45;17.15;;;10.93;;
39404;SDS011;25121;51.090;17.038;2022-10-23T07:21:46;16.38;;;10.15;;
39404;SDS011;25121;51.090;17.038;2022-10-23T07:24:44;15.52;;;9.95;;
39404;SDS011;25121;51.090;17.038;2022-10-23T07:27:44;15.00;;;9.50;;
39404;SDS011;25121;51.090;17.038;2022-10-23T07:30:34;12.95;;;9.13;;
39404;SDS011;25121;51.090;17.038;2022-10-23T07:33:22;12.30;;;8.95;;
39404;SDS011;25121;51.090;17.038;2022-10-23T07:36:20;10.35;;;7.80;;
39404;SDS011;25121;51.090;17.038;2022-10-23T07:39:09;9.68;;;7.05;;
39404;SDS011;25121;51.090;17.038;2022-10-23T07:42:04;8.70;;;6.63;;
39404;SDS011;25121;51.090;17.038;2022-10-23T07:44:53;9.65;;;7.65;;
39404;SDS011;25121;51.090;17.038;2022-10-23T07:47:41;10.85;;;7.68;;
39404;SDS011;25121;51.090;17.038;2022-10-23T07:50:30;8.75;;;7.03;;
39404;SDS011;25121;51.090;17.038;2022-10-23T07:53:19;8.85;;;6.90;;
39404;SDS011;25121;51.090;17.038;2022-10-23T07:56:12;9.00;;;6.80;;
39404;SDS011;25121;51.090;17.038;2022-10-23T07:59:20;7.93;;;6.30;;
39404;SDS011;25121;51.090;17.038;2022-10-23T08:02:13;8.85;;;6.40;;
39404;SDS011;25121;51.090;17.038;2022-10-23T08:05:02;7.75;;;6.07;;
39404;SDS011;25121;51.090;17.038;2022-10-23T08:07:56;7.15;;;6.43;;
39404;SDS011;25121;51.090;17.038;2022-10-23T08:10:44;7.18;;;5.93;;
39404;SDS011;25121;51.090;17.038;2022-10-23T08:16:28;7.05;;;5.53;;
39404;SDS011;25121;51.090;17.038;2022-10-23T08:19:36;7.10;;;5.85;;
39404;SDS011;25121;51.090;17.038;2022-10-23T08:22:24;8.18;;;5.97;;
39404;SDS011;25121;51.090;17.038;2022-10-23T08:25:13;8.93;;;6.32;;
39404;SDS011;25121;51.090;17.038;2022-10-23T08:28:03;9.10;;;5.68;;
39404;SDS011;25121;51.090;17.038;2022-10-23T08:31:05;8.95;;;5.65;;
39404;SDS011;25121;51.090;17.038;2022-10-23T08:33:55;8.07;;;5.22;;
39404;SDS011;25121;51.090;17.038;2022-10-23T08:36:46;6.97;;;5.45;;
39404;SDS011;25121;51.090;17.038;2022-10-23T08:39:35;6.57;;;5.15;;
39404;SDS011;25121;51.090;17.038;2022-10-23T08:45:39;6.85;;;4.38;;
39404;SDS011;25121;51.090;17.038;2022-10-23T08:48:50;5.88;;;4.45;;
39404;SDS011;25121;51.090;17.038;2022-10-23T08:52:13;5.88;;;4.00;;
39404;SDS011;25121;51.090;17.038;2022-10-23T08:55:12;5.82;;;3.70;;
39404;SDS011;25121;51.090;17.038;2022-10-23T08:58:04;4.05;;;3.65;;
39404;SDS011;25121;51.090;17.038;2022-10-23T09:00:59;4.47;;;4.05;;
39404;SDS011;25121;51.090;17.038;2022-10-23T09:03:48;5.25;;;3.60;;
39404;SDS011;25121;51.090;17.038;2022-10-23T09:06:37;4.50;;;3.53;;
39404;SDS011;25121;51.090;17.038;2022-10-23T09:09:37;3.60;;;3.28;;
39404;SDS011;25121;51.090;17.038;2022-10-23T09:12:42;3.75;;;3.15;;
39404;SDS011;25121;51.090;17.038;2022-10-23T09:15:30;3.85;;;2.83;;
39404;SDS011;25121;51.090;17.038;2022-10-23T09:18:24;4.45;;;3.08;;
39404;SDS011;25121;51.090;17.038;2022-10-23T09:21:12;5.45;;;3.00;;
39404;SDS011;25121;51.090;17.038;2022-10-23T09:24:00;4.07;;;3.05;;
39404;SDS011;25121;51.090;17.038;2022-10-23T09:26:51;5.03;;;2.97;;
39404;SDS011;25121;51.090;17.038;2022-10-23T09:29:45;9.57;;;3.28;;
39404;SDS011;25121;51.090;17.038;2022-10-23T09:32:35;7.93;;;3.20;;
39404;SDS011;25121;51.090;17.038;2022-10-23T09:35:24;4.05;;;2.92;;
39404;SDS011;25121;51.090;17.038;2022-10-23T09:38:20;3.83;;;3.30;;
39404;SDS011;25121;51.090;17.038;2022-10-23T09:41:17;4.10;;;3.03;;
39404;SDS011;25121;51.090;17.038;2022-10-23T09:44:14;6.05;;;3.47;;
39404;SDS011;25121;51.090;17.038;2022-10-23T09:47:08;3.17;;;2.80;;
39404;SDS011;25121;51.090;17.038;2022-10-23T09:49:56;4.30;;;3.13;;
39404;SDS011;25121;51.090;17.038;2022-10-23T09:52:43;4.30;;;2.97;;
39404;SDS011;25121;51.090;17.038;2022-10-23T09:55:30;7.82;;;3.05;;
39404;SDS011;25121;51.090;17.038;2022-10-23T09:58:19;6.20;;;3.67;;
39404;SDS011;25121;51.090;17.038;2022-10-23T10:01:22;7.75;;;3.60;;
39404;SDS011;25121;51.090;17.038;2022-10-23T10:04:18;6.00;;;3.60;;
39404;SDS011;25121;51.090;17.038;2022-10-23T10:07:17;7.05;;;2.95;;
39404;SDS011;25121;51.090;17.038;2022-10-23T10:10:09;4.88;;;3.53;;
39404;SDS011;25121;51.090;17.038;2022-10-23T10:13:02;5.13;;;3.40;;
39404;SDS011;25121;51.090;17.038;2022-10-23T10:16:05;3.40;;;3.00;;
39404;SDS011;25121;51.090;17.038;2022-10-23T10:19:02;2.83;;;2.55;;
39404;SDS011;25121;51.090;17.038;2022-10-23T10:22:02;5.85;;;3.35;;
39404;SDS011;25121;51.090;17.038;2022-10-23T10:25:00;4.93;;;2.80;;
39404;SDS011;25121;51.090;17.038;2022-10-23T10:27:58;6.50;;;3.35;;
39404;SDS011;25121;51.090;17.038;2022-10-23T10:31:04;3.45;;;3.15;;
39404;SDS011;25121;51.090;17.038;2022-10-23T10:34:06;5.30;;;3.25;;
39404;SDS011;25121;51.090;17.038;2022-10-23T10:37:08;6.10;;;3.40;;
39404;SDS011;25121;51.090;17.038;2022-10-23T10:40:08;4.70;;;3.22;;
39404;SDS011;25121;51.090;17.038;2022-10-23T10:43:13;6.47;;;3.60;;
39404;SDS011;25121;51.090;17.038;2022-10-23T10:46:18;6.18;;;3.45;;
39404;SDS011;25121;51.090;17.038;2022-10-23T10:49:16;5.30;;;2.40;;
39404;SDS011;25121;51.090;17.038;2022-10-23T10:52:34;4.90;;;2.38;;
39404;SDS011;25121;51.090;17.038;2022-10-23T10:55:34;8.82;;;3.30;;
39404;SDS011;25121;51.090;17.038;2022-10-23T10:58:29;3.33;;;3.03;;
39404;SDS011;25121;51.090;17.038;2022-10-23T11:01:24;5.28;;;3.42;;
39404;SDS011;25121;51.090;17.038;2022-10-23T11:04:29;4.88;;;3.65;;
39404;SDS011;25121;51.090;17.038;2022-10-23T11:07:23;6.53;;;3.65;;
39404;SDS011;25121;51.090;17.038;2022-10-23T11:10:25;6.88;;;4.47;;
39404;SDS011;25121;51.090;17.038;2022-10-23T11:13:20;6.35;;;4.35;;
39404;SDS011;25121;51.090;17.038;2022-10-23T11:16:12;9.27;;;4.03;;
39404;SDS011;25121;51.090;17.038;2022-10-23T11:19:10;5.20;;;3.83;;
39404;SDS011;25121;51.090;17.038;2022-10-23T11:22:07;5.68;;;3.80;;
39404;SDS011;25121;51.090;17.038;2022-10-23T11:28:36;4.35;;;3.25;;
39404;SDS011;25121;51.090;17.038;2022-10-23T11:31:51;3.67;;;3.05;;
39404;SDS011;25121;51.090;17.038;2022-10-23T11:35:01;6.28;;;4.63;;
39404;SDS011;25121;51.090;17.038;2022-10-23T11:38:08;6.50;;;3.65;;
39404;SDS011;25121;51.090;17.038;2022-10-23T11:41:04;5.22;;;3.67;;
39404;SDS011;25121;51.090;17.038;2022-10-23T11:44:21;8.65;;;5.90;;
39404;SDS011;25121;51.090;17.038;2022-10-23T11:47:30;10.05;;;6.40;;
39404;SDS011;25121;51.090;17.038;2022-10-23T11:50:29;7.63;;;6.32;;
39404;SDS011;25121;51.090;17.038;2022-10-23T11:56:26;7.53;;;5.65;;
39404;SDS011;25121;51.090;17.038;2022-10-23T11:59:18;6.53;;;5.40;;
39404;SDS011;25121;51.090;17.038;2022-10-23T12:02:18;8.70;;;6.22;;
39404;SDS011;25121;51.090;17.038;2022-10-23T12:05:24;8.07;;;5.95;;
39404;SDS011;25121;51.090;17.038;2022-10-23T12:08:24;12.48;;;7.38;;
39404;SDS011;25121;51.090;17.038;2022-10-23T12:14:31;122.38;;;47.20;;
39404;SDS011;25121;51.090;17.038;2022-10-23T12:17:32;82.95;;;33.88;;
39404;SDS011;25121;51.090;17.038;2022-10-23T12:20:24;174.10;;;66.32;;
39404;SDS011;25121;51.090;17.038;2022-10-23T12:23:34;168.15;;;65.57;;
39404;SDS011;25121;51.090;17.038;2022-10-23T12:26:53;93.55;;;42.10;;
39404;SDS011;25121;51.090;17.038;2022-10-23T12:29:57;102.75;;;42.92;;
39404;SDS011;25121;51.090;17.038;2022-10-23T12:33:10;88.10;;;39.35;;
39404;SDS011;25121;51.090;17.038;2022-10-23T12:36:15;115.57;;;48.08;;
39404;SDS011;25121;51.090;17.038;2022-10-23T12:39:34;79.13;;;35.33;;
39404;SDS011;25121;51.090;17.038;2022-10-23T12:42:23;89.82;;;39.00;;
39404;SDS011;25121;51.090;17.038;2022-10-23T12:45:14;78.95;;;35.15;;
39404;SDS011;25121;51.090;17.038;2022-10-23T12:48:14;81.80;;;37.53;;
39404;SDS011;25121;51.090;17.038;2022-10-23T12:51:05;73.57;;;31.58;;
39404;SDS011;25121;51.090;17.038;2022-10-23T12:54:12;37.90;;;19.10;;
39404;SDS011;25121;51.090;17.038;2022-10-23T12:57:12;62.60;;;28.70;;
39404;SDS011;25121;51.090;17.038;2022-10-23T13:00:13;60.58;;;27.95;;
39404;SDS011;25121;51.090;17.038;2022-10-23T13:03:04;52.08;;;25.30;;
39404;SDS011;25121;51.090;17.038;2022-10-23T13:05:52;64.47;;;28.55;;
39404;SDS011;25121;51.090;17.038;2022-10-23T13:08:43;53.50;;;25.65;;
39404;SDS011;25121;51.090;17.038;2022-10-23T13:11:56;39.25;;;20.00;;
39404;SDS011;25121;51.090;17.038;2022-10-23T13:14:56;38.38;;;19.45;;
39404;SDS011;25121;51.090;17.038;2022-10-23T13:17:58;24.30;;;10.70;;
39404;SDS011;25121;51.090;17.038;2022-10-23T13:20:54;14.25;;;8.35;;
39404;SDS011;25121;51.090;17.038;2022-10-23T13:23:49;13.68;;;6.50;;
39404;SDS011;25121;51.090;17.038;2022-10-23T13:26:39;9.18;;;5.80;;
39404;SDS011;25121;51.090;17.038;2022-10-23T13:29:29;9.65;;;5.95;;
39404;SDS011;25121;51.090;17.038;2022-10-23T13:32:22;7.22;;;5.18;;
39404;SDS011;25121;51.090;17.038;2022-10-23T13:35:19;9.88;;;5.50;;
39404;SDS011;25121;51.090;17.038;2022-10-23T13:38:08;7.00;;;5.28;;
39404;SDS011;25121;51.090;17.038;2022-10-23T13:40:56;9.57;;;5.40;;
39404;SDS011;25121;51.090;17.038;2022-10-23T13:43:46;10.18;;;4.85;;
39404;SDS011;25121;51.090;17.038;2022-10-23T13:46:34;9.40;;;5.45;;
39404;SDS011;25121;51.090;17.038;2022-10-23T13:49:23;10.10;;;5.18;;
39404;SDS011;25121;51.090;17.038;2022-10-23T13:52:13;6.22;;;4.80;;
39404;SDS011;25121;51.090;17.038;2022-10-23T13:55:09;6.50;;;5.10;;
39404;SDS011;25121;51.090;17.038;2022-10-23T13:58:07;9.95;;;5.68;;
39404;SDS011;25121;51.090;17.038;2022-10-23T14:00:56;10.00;;;5.82;;
39404;SDS011;25121;51.090;17.038;2022-10-23T14:03:44;9.40;;;6.45;;
39404;SDS011;25121;51.090;17.038;2022-10-23T14:06:33;9.38;;;5.65;;
39404;SDS011;25121;51.090;17.038;2022-10-23T14:09:22;9.75;;;5.55;;
39404;SDS011;25121;51.090;17.038;2022-10-23T14:12:09;8.30;;;5.43;;
39404;SDS011;25121;51.090;17.038;2022-10-23T14:14:57;8.85;;;5.65;;
39404;SDS011;25121;51.090;17.038;2022-10-23T14:17:44;9.98;;;5.32;;
39404;SDS011;25121;51.090;17.038;2022-10-23T14:20:33;8.82;;;5.70;;
39404;SDS011;25121;51.090;17.038;2022-10-23T14:23:24;8.02;;;5.25;;
39404;SDS011;25121;51.090;17.038;2022-10-23T14:26:13;10.20;;;6.00;;
39404;SDS011;25121;51.090;17.038;2022-10-23T14:29:02;10.68;;;5.80;;
39404;SDS011;25121;51.090;17.038;2022-10-23T14:31:55;15.32;;;6.47;;
39404;SDS011;25121;51.090;17.038;2022-10-23T14:34:43;10.27;;;6.15;;
39404;SDS011;25121;51.090;17.038;2022-10-23T14:37:37;10.57;;;6.00;;
39404;SDS011;25121;51.090;17.038;2022-10-23T14:40:26;10.90;;;7.15;;
39404;SDS011;25121;51.090;17.038;2022-10-23T14:43:14;13.20;;;7.90;;
39404;SDS011;25121;51.090;17.038;2022-10-23T14:46:06;13.48;;;8.90;;
39404;SDS011;25121;51.090;17.038;2022-10-23T14:48:58;14.05;;;8.38;;
39404;SDS011;25121;51.090;17.038;2022-10-23T14:51:46;12.07;;;8.02;;
39404;SDS011;25121;51.090;17.038;2022-10-23T14:54:36;13.93;;;9.25;;
39404;SDS011;25121;51.090;17.038;2022-10-23T14:57:26;12.80;;;10.07;;
39404;SDS011;25121;51.090;17.038;2022-10-23T15:00:14;13.57;;;10.20;;
39404;SDS011;25121;51.090;17.038;2022-10-23T15:03:02;21.73;;;11.93;;
39404;SDS011;25121;51.090;17.038;2022-10-23T15:05:49;12.93;;;9.30;;
39404;SDS011;25121;51.090;17.038;2022-10-23T15:08:36;12.90;;;8.07;;
39404;SDS011;25121;51.090;17.038;2022-10-23T15:11:27;16.77;;;8.85;;
39404;SDS011;25121;51.090;17.038;2022-10-23T15:14:19;10.73;;;7.85;;
39404;SDS011;25121;51.090;17.038;2022-10-23T15:20:00;11.75;;;7.70;;
39404;SDS011;25121;51.090;17.038;2022-10-23T15:22:47;9.25;;;6.97;;
39404;SDS011;25121;51.090;17.038;2022-10-23T15:25:35;9.43;;;7.00;;
39404;SDS011;25121;51.090;17.038;2022-10-23T15:28:24;14.48;;;8.27;;
39404;SDS011;25121;51.090;17.038;2022-10-23T15:34:34;11.38;;;7.82;;
39404;SDS011;25121;51.090;17.038;2022-10-23T15:37:23;13.38;;;7.93;;
39404;SDS011;25121;51.090;17.038;2022-10-23T15:40:11;11.60;;;7.78;;
39404;SDS011;25121;51.090;17.038;2022-10-23T15:42:59;16.23;;;7.82;;
39404;SDS011;25121;51.090;17.038;2022-10-23T15:45:47;10.98;;;7.38;;
39404;SDS011;25121;51.090;17.038;2022-10-23T15:48:36;14.90;;;8.98;;
39404;SDS011;25121;51.090;17.038;2022-10-23T15:51:23;31.92;;;18.30;;
39404;SDS011;25121;51.090;17.038;2022-10-23T15:54:13;23.20;;;14.55;;
39404;SDS011;25121;51.090;17.038;2022-10-23T15:57:03;19.85;;;12.57;;
39404;SDS011;25121;51.090;17.038;2022-10-23T15:59:51;22.00;;;11.35;;
39404;SDS011;25121;51.090;17.038;2022-10-23T16:02:38;16.17;;;11.18;;
39404;SDS011;25121;51.090;17.038;2022-10-23T16:05:28;13.85;;;9.20;;
39404;SDS011;25121;51.090;17.038;2022-10-23T16:08:15;14.25;;;8.88;;
39404;SDS011;25121;51.090;17.038;2022-10-23T16:11:11;13.88;;;8.52;;
39404;SDS011;25121;51.090;17.038;2022-10-23T16:14:04;11.77;;;7.93;;
39404;SDS011;25121;51.090;17.038;2022-10-23T16:16:52;13.05;;;8.13;;
39404;SDS011;25121;51.090;17.038;2022-10-23T16:19:40;12.27;;;8.07;;
39404;SDS011;25121;51.090;17.038;2022-10-23T16:22:29;11.88;;;8.45;;
39404;SDS011;25121;51.090;17.038;2022-10-23T16:25:16;13.23;;;8.18;;
39404;SDS011;25121;51.090;17.038;2022-10-23T16:28:04;15.38;;;9.00;;
39404;SDS011;25121;51.090;17.038;2022-10-23T16:30:52;13.20;;;8.98;;
39404;SDS011;25121;51.090;17.038;2022-10-23T16:33:39;13.63;;;9.15;;
39404;SDS011;25121;51.090;17.038;2022-10-23T16:36:27;15.35;;;8.85;;
39404;SDS011;25121;51.090;17.038;2022-10-23T16:39:31;11.80;;;8.48;;
39404;SDS011;25121;51.090;17.038;2022-10-23T16:42:59;14.90;;;9.98;;
39404;SDS011;25121;51.090;17.038;2022-10-23T16:46:02;15.90;;;10.25;;
39404;SDS011;25121;51.090;17.038;2022-10-23T16:48:52;17.40;;;11.50;;
39404;SDS011;25121;51.090;17.038;2022-10-23T16:51:42;18.35;;;10.65;;
39404;SDS011;25121;51.090;17.038;2022-10-23T16:54:31;12.63;;;9.05;;
39404;SDS011;25121;51.090;17.038;2022-10-23T16:57:19;13.32;;;8.73;;
39404;SDS011;25121;51.090;17.038;2022-10-23T17:00:06;12.48;;;8.77;;
39404;SDS011;25121;51.090;17.038;2022-10-23T17:02:55;14.18;;;9.10;;
39404;SDS011;25121;51.090;17.038;2022-10-23T17:05:43;11.68;;;8.73;;
39404;SDS011;25121;51.090;17.038;2022-10-23T17:08:30;12.15;;;8.52;;
39404;SDS011;25121;51.090;17.038;2022-10-23T17:11:20;12.80;;;8.50;;
39404;SDS011;25121;51.090;17.038;2022-10-23T17:14:10;16.13;;;8.75;;
39404;SDS011;25121;51.090;17.038;2022-10-23T17:17:01;12.35;;;8.25;;
39404;SDS011;25121;51.090;17.038;2022-10-23T17:19:49;13.52;;;8.50;;
39404;SDS011;25121;51.090;17.038;2022-10-23T17:22:37;14.75;;;8.85;;